sensor_id;sensor_type;location;lat;lon;timestamp;pressure;altitude;pressure_sealevel;temperature;humidity
75855;BME280;64502;59.976;30.316;2023-05-07T00:01:04;102709.72;;;3.59;67.63
75855;BME280;64502;59.976;30.316;2023-05-07T00:03:31;102706.25;;;3.55;68.26
75855;BME280;64502;59.976;30.316;2023-05-07T00:05:58;102713.19;;;3.53;68.17
75855;BME280;64502;59.976;30.316;2023-05-07T00:08:23;102708.84;;;3.50;67.73
75855;BME280;64502;59.976;30.316;2023-05-07T00:10:49;102707.09;;;3.48;68.76
75855;BME280;64502;59.976;30.316;2023-05-07T00:13:14;102707.06;;;3.43;68.40
75855;BME280;64502;59.976;30.316;2023-05-07T00:15:40;102707.91;;;3.41;68.58
75855;BME280;64502;59.976;30.316;2023-05-07T00:18:06;102714.00;;;3.38;69.76
75855;BME280;64502;59.976;30.316;2023-05-07T00:20:31;102708.81;;;3.41;70.16
75855;BME280;64502;59.976;30.316;2023-05-07T00:22:57;102703.59;;;3.41;69.90
75855;BME280;64502;59.976;30.316;2023-05-07T00:25:22;102703.59;;;3.41;69.35
75855;BME280;64502;59.976;30.316;2023-05-07T00:27:48;102709.66;;;3.43;69.82
75855;BME280;64502;59.976;30.316;2023-05-07T00:30:13;102711.44;;;3.44;69.70
75855;BME280;64502;59.976;30.316;2023-05-07T00:32:39;102703.59;;;3.46;69.10
75855;BME280;64502;59.976;30.316;2023-05-07T00:35:05;102704.47;;;3.48;68.55
75855;BME280;64502;59.976;30.316;2023-05-07T00:37:31;102708.84;;;3.50;68.52
75855;BME280;64502;59.976;30.316;2023-05-07T00:39:56;102711.44;;;3.50;68.55
75855;BME280;64502;59.976;30.316;2023-05-07T00:42:22;102709.72;;;3.52;69.00
75855;BME280;64502;59.976;30.316;2023-05-07T00:44:47;102710.59;;;3.58;68.05
75855;BME280;64502;59.976;30.316;2023-05-07T00:47:13;102706.25;;;3.60;68.98
75855;BME280;64502;59.976;30.316;2023-05-07T00:49:43;102714.09;;;3.67;68.51
75855;BME280;64502;59.976;30.316;2023-05-07T00:52:11;102711.50;;;3.72;69.08
75855;BME280;64502;59.976;30.316;2023-05-07T00:54:40;102718.47;;;3.76;67.80
75855;BME280;64502;59.976;30.316;2023-05-07T00:57:05;102711.50;;;3.78;68.21
75855;BME280;64502;59.976;30.316;2023-05-07T00:59:32;102718.50;;;3.81;68.18
75855;BME280;64502;59.976;30.316;2023-05-07T01:01:58;102713.28;;;3.82;67.97
75855;BME280;64502;59.976;30.316;2023-05-07T01:04:24;102710.66;;;3.82;68.55
75855;BME280;64502;59.976;30.316;2023-05-07T01:06:50;102711.53;;;3.84;67.93
75855;BME280;64502;59.976;30.316;2023-05-07T01:09:17;102713.28;;;3.85;68.82
75855;BME280;64502;59.976;30.316;2023-05-07T01:11:45;102715.00;;;3.86;67.71
75855;BME280;64502;59.976;30.316;2023-05-07T01:14:11;102712.41;;;3.88;67.26
75855;BME280;64502;59.976;30.316;2023-05-07T01:16:36;102720.25;;;3.89;67.63
75855;BME280;64502;59.976;30.316;2023-05-07T01:19:02;102710.66;;;3.90;68.06
75855;BME280;64502;59.976;30.316;2023-05-07T01:21:32;102715.91;;;3.91;67.97
75855;BME280;64502;59.976;30.316;2023-05-07T01:23:58;102718.50;;;3.91;67.50
75855;BME280;64502;59.976;30.316;2023-05-07T01:26:24;102722.00;;;3.93;67.07
75855;BME280;64502;59.976;30.316;2023-05-07T01:28:49;102722.84;;;3.95;66.98
75855;BME280;64502;59.976;30.316;2023-05-07T01:31:16;102724.59;;;3.98;66.73
75855;BME280;64502;59.976;30.316;2023-05-07T01:33:44;102721.13;;;3.99;66.49
75855;BME280;64502;59.976;30.316;2023-05-07T01:36:11;102731.59;;;4.02;66.57
75855;BME280;64502;59.976;30.316;2023-05-07T01:38:39;102722.03;;;4.04;66.42
75855;BME280;64502;59.976;30.316;2023-05-07T01:41:06;102724.63;;;4.04;66.88
75855;BME280;64502;59.976;30.316;2023-05-07T01:43:32;102730.72;;;4.06;67.07
75855;BME280;64502;59.976;30.316;2023-05-07T01:45:58;102729.84;;;4.10;66.18
75855;BME280;64502;59.976;30.316;2023-05-07T01:48:25;102726.38;;;4.11;66.52
75855;BME280;64502;59.976;30.316;2023-05-07T01:50:51;102727.25;;;4.13;65.46
75855;BME280;64502;59.976;30.316;2023-05-07T01:53:17;102732.44;;;4.12;65.11
75855;BME280;64502;59.976;30.316;2023-05-07T01:55:42;102733.34;;;4.15;65.52
75855;BME280;64502;59.976;30.316;2023-05-07T01:58:08;102735.09;;;4.18;64.51
75855;BME280;64502;59.976;30.316;2023-05-07T02:00:33;102733.34;;;4.20;63.78
75855;BME280;64502;59.976;30.316;2023-05-07T02:02:59;102728.97;;;4.22;64.07
75855;BME280;64502;59.976;30.316;2023-05-07T02:05:24;102733.34;;;4.25;64.74
75855;BME280;64502;59.976;30.316;2023-05-07T02:07:50;102735.97;;;4.26;63.77
75855;BME280;64502;59.976;30.316;2023-05-07T02:10:15;102728.97;;;4.28;62.94
75855;BME280;64502;59.976;30.316;2023-05-07T02:12:41;102731.63;;;4.31;63.06
75855;BME280;64502;59.976;30.316;2023-05-07T02:15:08;102734.22;;;4.33;62.89
75855;BME280;64502;59.976;30.316;2023-05-07T02:17:33;102732.47;;;4.38;62.26
75855;BME280;64502;59.976;30.316;2023-05-07T02:19:59;102738.56;;;4.41;61.85
75855;BME280;64502;59.976;30.316;2023-05-07T02:22:24;102731.59;;;4.43;61.07
75855;BME280;64502;59.976;30.316;2023-05-07T02:24:51;102734.22;;;4.47;61.01
75855;BME280;64502;59.976;30.316;2023-05-07T02:27:16;102733.34;;;4.52;60.60
75855;BME280;64502;59.976;30.316;2023-05-07T02:29:42;102737.72;;;4.56;60.75
75855;BME280;64502;59.976;30.316;2023-05-07T02:32:07;102740.31;;;4.59;60.44
75855;BME280;64502;59.976;30.316;2023-05-07T02:34:33;102738.56;;;4.60;60.50
75855;BME280;64502;59.976;30.316;2023-05-07T02:36:58;102728.13;;;4.61;60.84
75855;BME280;64502;59.976;30.316;2023-05-07T02:39:23;102747.31;;;4.66;60.97
75855;BME280;64502;59.976;30.316;2023-05-07T02:41:49;102733.34;;;4.71;60.79
75855;BME280;64502;59.976;30.316;2023-05-07T02:44:14;102743.78;;;4.75;60.83
75855;BME280;64502;59.976;30.316;2023-05-07T02:46:40;102739.41;;;4.79;60.60
75855;BME280;64502;59.976;30.316;2023-05-07T02:49:05;102727.19;;;4.82;61.50
75855;BME280;64502;59.976;30.316;2023-05-07T02:51:31;102728.97;;;4.83;61.14
75855;BME280;64502;59.976;30.316;2023-05-07T02:53:56;102744.63;;;4.89;61.04
75855;BME280;64502;59.976;30.316;2023-05-07T02:56:22;102748.09;;;4.93;61.13
75855;BME280;64502;59.976;30.316;2023-05-07T02:58:47;102755.09;;;5.00;61.33
75855;BME280;64502;59.976;30.316;2023-05-07T03:01:13;102755.06;;;5.08;61.27
75855;BME280;64502;59.976;30.316;2023-05-07T03:03:39;102746.34;;;5.10;59.32
75855;BME280;64502;59.976;30.316;2023-05-07T03:06:05;102747.19;;;5.16;59.02
75855;BME280;64502;59.976;30.316;2023-05-07T03:08:32;102748.94;;;5.21;58.89
75855;BME280;64502;59.976;30.316;2023-05-07T03:10:57;102755.88;;;5.25;58.25
75855;BME280;64502;59.976;30.316;2023-05-07T03:13:23;102752.38;;;5.28;57.50
75855;BME280;64502;59.976;30.316;2023-05-07T03:15:48;102756.72;;;5.29;57.93
75855;BME280;64502;59.976;30.316;2023-05-07T03:18:13;102752.38;;;5.28;56.67
75855;BME280;64502;59.976;30.316;2023-05-07T03:20:39;102751.50;;;5.27;57.17
75855;BME280;64502;59.976;30.316;2023-05-07T03:23:05;102759.38;;;5.24;57.26
75855;BME280;64502;59.976;30.316;2023-05-07T03:25:31;102761.13;;;5.24;56.66
75855;BME280;64502;59.976;30.316;2023-05-07T03:27:56;102762.00;;;5.23;57.00
75855;BME280;64502;59.976;30.316;2023-05-07T03:30:22;102755.88;;;5.27;56.50
75855;BME280;64502;59.976;30.316;2023-05-07T03:32:47;102757.59;;;5.31;56.70
75855;BME280;64502;59.976;30.316;2023-05-07T03:35:13;102759.34;;;5.33;56.71
75855;BME280;64502;59.976;30.316;2023-05-07T03:37:38;102760.19;;;5.37;56.15
75855;BME280;64502;59.976;30.316;2023-05-07T03:40:05;102767.16;;;5.40;55.89
75855;BME280;64502;59.976;30.316;2023-05-07T03:42:31;102763.66;;;5.42;55.92
75855;BME280;64502;59.976;30.316;2023-05-07T03:44:57;102757.53;;;5.49;56.12
75855;BME280;64502;59.976;30.316;2023-05-07T03:47:22;102757.50;;;5.57;55.85
75855;BME280;64502;59.976;30.316;2023-05-07T03:49:47;102751.34;;;5.64;55.53
75855;BME280;64502;59.976;30.316;2023-05-07T03:52:14;102767.03;;;5.67;55.33
75855;BME280;64502;59.976;30.316;2023-05-07T03:54:40;102764.44;;;5.69;53.94
75855;BME280;64502;59.976;30.316;2023-05-07T03:57:05;102766.16;;;5.71;54.69
75855;BME280;64502;59.976;30.316;2023-05-07T03:59:30;102773.13;;;5.74;54.61
75855;BME280;64502;59.976;30.316;2023-05-07T04:01:56;102767.88;;;5.75;53.85
75855;BME280;64502;59.976;30.316;2023-05-07T04:04:21;102773.97;;;5.82;54.26
75855;BME280;64502;59.976;30.316;2023-05-07T04:06:47;102776.56;;;5.85;53.79
75855;BME280;64502;59.976;30.316;2023-05-07T04:09:12;102776.53;;;5.93;52.93
75855;BME280;64502;59.976;30.316;2023-05-07T04:11:38;102782.63;;;6.06;52.36
75855;BME280;64502;59.976;30.316;2023-05-07T04:14:05;102779.09;;;6.10;51.11
75855;BME280;64502;59.976;30.316;2023-05-07T04:16:30;102781.69;;;6.13;50.78
75855;BME280;64502;59.976;30.316;2023-05-07T04:18:56;102781.63;;;6.20;50.64
75855;BME280;64502;59.976;30.316;2023-05-07T04:21:21;102788.59;;;6.26;49.79
75855;BME280;64502;59.976;30.316;2023-05-07T04:23:47;102780.69;;;6.29;48.05
75855;BME280;64502;59.976;30.316;2023-05-07T04:26:14;102781.56;;;6.31;48.87
75855;BME280;64502;59.976;30.316;2023-05-07T04:28:40;102784.16;;;6.36;48.39
75855;BME280;64502;59.976;30.316;2023-05-07T04:31:06;102785.88;;;6.41;48.18
75855;BME280;64502;59.976;30.316;2023-05-07T04:33:31;102784.91;;;6.49;48.22
75855;BME280;64502;59.976;30.316;2023-05-07T04:35:58;102783.06;;;6.60;47.85
75855;BME280;64502;59.976;30.316;2023-05-07T04:38:28;102790.00;;;6.70;47.67
75855;BME280;64502;59.976;30.316;2023-05-07T04:40:54;102794.34;;;6.74;46.38
75855;BME280;64502;59.976;30.316;2023-05-07T04:43:19;102784.66;;;6.81;46.11
75855;BME280;64502;59.976;30.316;2023-05-07T04:45:45;102789.91;;;6.81;45.51
75855;BME280;64502;59.976;30.316;2023-05-07T04:48:11;102794.22;;;6.88;45.96
75855;BME280;64502;59.976;30.316;2023-05-07T04:50:36;102802.03;;;6.94;45.09
75855;BME280;64502;59.976;30.316;2023-05-07T04:53:02;102801.91;;;7.05;46.53
75855;BME280;64502;59.976;30.316;2023-05-07T04:55:28;102806.19;;;7.14;45.76
75855;BME280;64502;59.976;30.316;2023-05-07T04:57:53;102800.97;;;7.12;45.65
75855;BME280;64502;59.976;30.316;2023-05-07T05:00:19;102801.78;;;7.17;45.21
75855;BME280;64502;59.976;30.316;2023-05-07T05:02:45;102799.13;;;7.23;45.02
75855;BME280;64502;59.976;30.316;2023-05-07T05:05:10;102801.66;;;7.29;44.87
75855;BME280;64502;59.976;30.316;2023-05-07T05:07:36;102802.50;;;7.33;44.35
75855;BME280;64502;59.976;30.316;2023-05-07T05:10:02;102813.00;;;7.34;44.47
75855;BME280;64502;59.976;30.316;2023-05-07T05:12:29;102807.66;;;7.42;43.76
75855;BME280;64502;59.976;30.316;2023-05-07T05:14:54;102801.41;;;7.51;43.79
75855;BME280;64502;59.976;30.316;2023-05-07T05:17:19;102803.06;;;7.61;43.67
75855;BME280;64502;59.976;30.316;2023-05-07T05:19:45;102804.56;;;7.79;43.25
75855;BME280;64502;59.976;30.316;2023-05-07T05:22:10;102800.13;;;7.83;43.73
75855;BME280;64502;59.976;30.316;2023-05-07T05:24:36;102806.34;;;7.78;42.58
75855;BME280;64502;59.976;30.316;2023-05-07T05:27:01;102808.00;;;7.84;43.75
75855;BME280;64502;59.976;30.316;2023-05-07T05:29:27;102808.06;;;7.81;43.37
75855;BME280;64502;59.976;30.316;2023-05-07T05:31:52;102811.59;;;7.78;41.92
75855;BME280;64502;59.976;30.316;2023-05-07T05:34:18;102817.78;;;7.71;42.49
75855;BME280;64502;59.976;30.316;2023-05-07T05:36:45;102809.09;;;7.66;41.65
75855;BME280;64502;59.976;30.316;2023-05-07T05:39:10;102815.34;;;7.59;42.86
75855;BME280;64502;59.976;30.316;2023-05-07T05:41:36;102814.47;;;7.59;42.96
75855;BME280;64502;59.976;30.316;2023-05-07T05:44:01;102810.97;;;7.56;42.13
75855;BME280;64502;59.976;30.316;2023-05-07T05:46:27;102815.34;;;7.59;42.65
75855;BME280;64502;59.976;30.316;2023-05-07T05:48:52;102813.56;;;7.61;42.52
75855;BME280;64502;59.976;30.316;2023-05-07T05:51:18;102813.53;;;7.63;42.69
75855;BME280;64502;59.976;30.316;2023-05-07T05:53:43;102817.78;;;7.73;41.89
75855;BME280;64502;59.976;30.316;2023-05-07T05:56:08;102814.13;;;7.86;42.44
75855;BME280;64502;59.976;30.316;2023-05-07T05:58:34;102813.84;;;8.06;41.83
75855;BME280;64502;59.976;30.316;2023-05-07T06:00:59;102819.00;;;8.14;41.24
75855;BME280;64502;59.976;30.316;2023-05-07T06:03:25;102819.88;;;8.13;41.23
75855;BME280;64502;59.976;30.316;2023-05-07T06:05:51;102824.16;;;8.20;41.43
75855;BME280;64502;59.976;30.316;2023-05-07T06:08:16;102821.31;;;8.34;41.49
75855;BME280;64502;59.976;30.316;2023-05-07T06:10:42;102821.25;;;8.40;41.21
75855;BME280;64502;59.976;30.316;2023-05-07T06:13:07;102809.78;;;8.45;40.30
75855;BME280;64502;59.976;30.316;2023-05-07T06:15:33;102826.34;;;8.51;40.10
75855;BME280;64502;59.976;30.316;2023-05-07T06:17:58;102825.50;;;8.50;40.15
75855;BME280;64502;59.976;30.316;2023-05-07T06:20:24;102824.56;;;8.54;40.51
75855;BME280;64502;59.976;30.316;2023-05-07T06:22:49;102826.28;;;8.55;39.99
75855;BME280;64502;59.976;30.316;2023-05-07T06:25:15;102822.75;;;8.58;40.17
75855;BME280;64502;59.976;30.316;2023-05-07T06:27:40;102826.13;;;8.68;39.66
75855;BME280;64502;59.976;30.316;2023-05-07T06:30:06;102825.91;;;8.80;39.70
75855;BME280;64502;59.976;30.316;2023-05-07T06:32:32;102822.22;;;8.90;39.19
75855;BME280;64502;59.976;30.316;2023-05-07T06:34:58;102822.22;;;8.90;37.60
75855;BME280;64502;59.976;30.316;2023-05-07T06:37:23;102816.09;;;8.88;36.54
75855;BME280;64502;59.976;30.316;2023-05-07T06:39:48;102819.47;;;8.98;37.47
75855;BME280;64502;59.976;30.316;2023-05-07T06:42:14;102818.38;;;9.08;36.89
75855;BME280;64502;59.976;30.316;2023-05-07T06:44:39;102812.13;;;9.14;35.63
75855;BME280;64502;59.976;30.316;2023-05-07T06:47:05;102819.03;;;9.19;36.42
75855;BME280;64502;59.976;30.316;2023-05-07T06:49:30;102819.88;;;9.23;35.79
75855;BME280;64502;59.976;30.316;2023-05-07T06:51:56;102812.84;;;9.23;35.37
75855;BME280;64502;59.976;30.316;2023-05-07T06:54:22;102817.97;;;9.29;36.60
75855;BME280;64502;59.976;30.316;2023-05-07T06:56:48;102807.31;;;9.36;35.21
75855;BME280;64502;59.976;30.316;2023-05-07T06:59:14;102819.47;;;9.44;35.38
75855;BME280;64502;59.976;30.316;2023-05-07T07:01:39;102812.38;;;9.46;35.05
75855;BME280;64502;59.976;30.316;2023-05-07T07:04:05;102805.53;;;9.38;33.81
75855;BME280;64502;59.976;30.316;2023-05-07T07:06:31;102815.13;;;9.42;34.18
75855;BME280;64502;59.976;30.316;2023-05-07T07:08:57;102816.91;;;9.41;34.18
75855;BME280;64502;59.976;30.316;2023-05-07T07:11:23;102816.06;;;9.38;33.33
75855;BME280;64502;59.976;30.316;2023-05-07T07:13:48;102809.09;;;9.35;33.30
75855;BME280;64502;59.976;30.316;2023-05-07T07:16:14;102809.94;;;9.37;33.79
75855;BME280;64502;59.976;30.316;2023-05-07T07:18:39;102795.75;;;9.43;35.54
75855;BME280;64502;59.976;30.316;2023-05-07T07:21:05;102798.41;;;9.43;36.99
75855;BME280;64502;59.976;30.316;2023-05-07T07:23:30;102800.25;;;9.39;36.90
75855;BME280;64502;59.976;30.316;2023-05-07T07:25:56;102802.03;;;9.37;38.24
75855;BME280;64502;59.976;30.316;2023-05-07T07:28:21;102810.78;;;9.38;39.59
75855;BME280;64502;59.976;30.316;2023-05-07T07:30:47;102800.19;;;9.41;38.87
75855;BME280;64502;59.976;30.316;2023-05-07T07:33:12;102808.88;;;9.46;39.27
75855;BME280;64502;59.976;30.316;2023-05-07T07:35:38;102804.50;;;9.45;38.67
75855;BME280;64502;59.976;30.316;2023-05-07T07:38:03;102807.09;;;9.46;38.70
75855;BME280;64502;59.976;30.316;2023-05-07T07:40:29;102805.22;;;9.53;38.49
75855;BME280;64502;59.976;30.316;2023-05-07T07:42:54;102799.59;;;9.71;37.84
75855;BME280;64502;59.976;30.316;2023-05-07T07:45:20;102800.84;;;9.94;36.97
75855;BME280;64502;59.976;30.316;2023-05-07T07:47:46;102805.50;;;10.21;37.25
75855;BME280;64502;59.976;30.316;2023-05-07T07:50:11;102796.75;;;10.19;37.33
75855;BME280;64502;59.976;30.316;2023-05-07T07:52:37;102795.97;;;10.14;37.52
75855;BME280;64502;59.976;30.316;2023-05-07T07:55:03;102806.34;;;9.83;38.85
75855;BME280;64502;59.976;30.316;2023-05-07T07:57:28;102793.50;;;9.68;38.20
75855;BME280;64502;59.976;30.316;2023-05-07T07:59:54;102801.72;;;9.52;39.87
75855;BME280;64502;59.976;30.316;2023-05-07T08:02:19;102805.41;;;9.44;39.30
75855;BME280;64502;59.976;30.316;2023-05-07T08:04:45;102807.16;;;9.45;39.96
75855;BME280;64502;59.976;30.316;2023-05-07T08:07:11;102812.38;;;9.46;39.91
75855;BME280;64502;59.976;30.316;2023-05-07T08:09:38;102805.41;;;9.44;40.34
75855;BME280;64502;59.976;30.316;2023-05-07T08:12:07;102811.44;;;9.50;40.17
75855;BME280;64502;59.976;30.316;2023-05-07T08:14:33;102802.72;;;9.47;39.95
75855;BME280;64502;59.976;30.316;2023-05-07T08:16:59;102799.31;;;9.42;39.72
75855;BME280;64502;59.976;30.316;2023-05-07T08:19:25;102804.50;;;9.45;40.03
75855;BME280;64502;59.976;30.316;2023-05-07T08:21:50;102793.91;;;9.48;40.44
75855;BME280;64502;59.976;30.316;2023-05-07T08:24:16;102803.59;;;9.47;39.68
75855;BME280;64502;59.976;30.316;2023-05-07T08:26:41;102799.09;;;9.52;38.84
75855;BME280;64502;59.976;30.316;2023-05-07T08:29:07;102797.69;;;9.76;38.01
75855;BME280;64502;59.976;30.316;2023-05-07T08:31:32;102802.16;;;10.13;38.00
75855;BME280;64502;59.976;30.316;2023-05-07T08:33:58;102801.47;;;10.44;38.06
75855;BME280;64502;59.976;30.316;2023-05-07T08:36:24;102794.06;;;10.60;38.92
75855;BME280;64502;59.976;30.316;2023-05-07T08:38:51;102804.50;;;10.64;38.44
75855;BME280;64502;59.976;30.316;2023-05-07T08:41:16;102798.47;;;10.59;37.48
75855;BME280;64502;59.976;30.316;2023-05-07T08:43:47;102790.72;;;10.53;38.50
75855;BME280;64502;59.976;30.316;2023-05-07T08:46:19;102803.41;;;10.37;38.70
75855;BME280;64502;59.976;30.316;2023-05-07T08:48:47;102786.03;;;10.26;38.50
75855;BME280;64502;59.976;30.316;2023-05-07T08:51:14;102791.47;;;10.19;39.31
75855;BME280;64502;59.976;30.316;2023-05-07T08:53:41;102795.97;;;10.16;38.83
75855;BME280;64502;59.976;30.316;2023-05-07T08:56:08;102794.97;;;10.20;39.63
75855;BME280;64502;59.976;30.316;2023-05-07T08:58:34;102802.75;;;10.28;40.60
75855;BME280;64502;59.976;30.316;2023-05-07T09:01:02;102798.22;;;10.33;41.88
75855;BME280;64502;59.976;30.316;2023-05-07T09:03:28;102799.28;;;10.24;39.83
75855;BME280;64502;59.976;30.316;2023-05-07T09:05:54;102795.19;;;10.11;41.45
75855;BME280;64502;59.976;30.316;2023-05-07T09:08:24;102800.63;;;10.03;41.28
75855;BME280;64502;59.976;30.316;2023-05-07T09:10:51;102806.16;;;9.92;41.72
75855;BME280;64502;59.976;30.316;2023-05-07T09:13:17;102798.13;;;9.97;41.00
75855;BME280;64502;59.976;30.316;2023-05-07T09:15:43;102806.31;;;9.85;42.90
75855;BME280;64502;59.976;30.316;2023-05-07T09:18:08;102805.28;;;9.92;42.10
75855;BME280;64502;59.976;30.316;2023-05-07T09:20:36;102801.53;;;10.02;40.46
75855;BME280;64502;59.976;30.316;2023-05-07T09:23:02;102811.03;;;10.09;38.63
75855;BME280;64502;59.976;30.316;2023-05-07T09:25:32;102822.50;;;10.08;36.68
75855;BME280;64502;59.976;30.316;2023-05-07T09:28:02;102801.91;;;10.24;37.12
75855;BME280;64502;59.976;30.316;2023-05-07T09:30:31;102811.25;;;10.39;37.68
75855;BME280;64502;59.976;30.316;2023-05-07T09:33:02;102805.41;;;10.26;39.21
75855;BME280;64502;59.976;30.316;2023-05-07T09:35:28;102809.84;;;10.22;39.31
75855;BME280;64502;59.976;30.316;2023-05-07T09:37:55;102815.94;;;10.28;37.59
75855;BME280;64502;59.976;30.316;2023-05-07T09:40:25;102817.38;;;10.42;37.98
75855;BME280;64502;59.976;30.316;2023-05-07T09:42:51;102814.41;;;10.55;37.52
75855;BME280;64502;59.976;30.316;2023-05-07T09:45:30;102817.63;;;10.68;37.50
75855;BME280;64502;59.976;30.316;2023-05-07T09:47:58;102810.31;;;10.79;36.09
75855;BME280;64502;59.976;30.316;2023-05-07T09:50:27;102816.59;;;11.07;36.09
75855;BME280;64502;59.976;30.316;2023-05-07T09:52:57;102808.63;;;11.40;33.31
75855;BME280;64502;59.976;30.316;2023-05-07T09:55:23;102814.53;;;11.51;30.88
75855;BME280;64502;59.976;30.316;2023-05-07T09:57:53;102829.19;;;11.62;29.95
75855;BME280;64502;59.976;30.316;2023-05-07T10:00:19;102808.03;;;11.62;30.04
75855;BME280;64502;59.976;30.316;2023-05-07T10:02:48;102809.72;;;11.64;30.84
75855;BME280;64502;59.976;30.316;2023-05-07T10:05:14;102808.22;;;11.55;30.31
75855;BME280;64502;59.976;30.316;2023-05-07T10:07:41;102818.59;;;11.62;30.31
75855;BME280;64502;59.976;30.316;2023-05-07T10:10:07;102815.72;;;11.71;28.81
75855;BME280;64502;59.976;30.316;2023-05-07T10:12:32;102809.13;;;11.86;28.25
75855;BME280;64502;59.976;30.316;2023-05-07T10:15:05;102814.47;;;11.83;27.23
75855;BME280;64502;59.976;30.316;2023-05-07T10:17:36;102815.25;;;11.88;25.85
75855;BME280;64502;59.976;30.316;2023-05-07T10:20:02;102804.47;;;11.94;26.49
75855;BME280;64502;59.976;30.316;2023-05-07T10:22:33;102814.59;;;12.09;24.42
75855;BME280;64502;59.976;30.316;2023-05-07T10:25:02;102818.31;;;12.30;24.61
75855;BME280;64502;59.976;30.316;2023-05-07T10:27:29;102801.59;;;12.30;24.88
75855;BME280;64502;59.976;30.316;2023-05-07T10:29:59;102817.41;;;12.59;25.10
75855;BME280;64502;59.976;30.316;2023-05-07T10:32:47;102802.84;;;12.98;24.63
75855;BME280;64502;59.976;30.316;2023-05-07T10:35:18;102793.50;;;13.13;22.52
75855;BME280;64502;59.976;30.316;2023-05-07T10:37:45;102804.03;;;13.39;23.00
75855;BME280;64502;59.976;30.316;2023-05-07T10:40:12;102800.47;;;13.64;22.57
75855;BME280;64502;59.976;30.316;2023-05-07T10:42:38;102796.81;;;13.91;23.00
75855;BME280;64502;59.976;30.316;2023-05-07T10:45:13;102796.69;;;14.16;23.42
75855;BME280;64502;59.976;30.316;2023-05-07T10:50:35;102777.56;;;14.73;22.51
75855;BME280;64502;59.976;30.316;2023-05-07T10:55:41;102780.50;;;15.07;20.67
75855;BME280;64502;59.976;30.316;2023-05-07T10:58:26;102782.00;;;15.34;21.10
75855;BME280;64502;59.976;30.316;2023-05-07T11:00:57;102771.06;;;15.40;20.17
75855;BME280;64502;59.976;30.316;2023-05-07T11:03:24;102775.31;;;15.63;20.96
75855;BME280;64502;59.976;30.316;2023-05-07T11:06:09;102779.75;;;16.02;18.39
75855;BME280;64502;59.976;30.316;2023-05-07T11:08:57;102772.97;;;15.94;18.56
75855;BME280;64502;59.976;30.316;2023-05-07T11:14:11;102770.03;;;15.82;18.87
75855;BME280;64502;59.976;30.316;2023-05-07T11:16:37;102775.00;;;15.70;18.14
75855;BME280;64502;59.976;30.316;2023-05-07T11:19:03;102766.66;;;15.78;18.17
75855;BME280;64502;59.976;30.316;2023-05-07T11:21:32;102778.31;;;15.94;18.95
75855;BME280;64502;59.976;30.316;2023-05-07T11:23:59;102779.94;;;16.16;18.09
75855;BME280;64502;59.976;30.316;2023-05-07T11:26:25;102767.22;;;16.40;18.69
75855;BME280;64502;59.976;30.316;2023-05-07T11:28:51;102780.91;;;16.50;18.24
75855;BME280;64502;59.976;30.316;2023-05-07T11:31:23;102767.34;;;16.72;18.30
75855;BME280;64502;59.976;30.316;2023-05-07T11:33:49;102763.44;;;17.29;18.05
75855;BME280;64502;59.976;30.316;2023-05-07T11:36:15;102763.88;;;17.87;16.50
75855;BME280;64502;59.976;30.316;2023-05-07T11:38:41;102768.19;;;18.21;16.23
75855;BME280;64502;59.976;30.316;2023-05-07T11:41:07;102769.22;;;18.18;17.12
75855;BME280;64502;59.976;30.316;2023-05-07T11:43:33;102777.81;;;18.39;15.91
75855;BME280;64502;59.976;30.316;2023-05-07T11:46:06;102779.56;;;18.55;16.64
75855;BME280;64502;59.976;30.316;2023-05-07T11:48:33;102771.44;;;18.42;15.94
75855;BME280;64502;59.976;30.316;2023-05-07T11:53:27;102765.97;;;18.74;15.87
75855;BME280;64502;59.976;30.316;2023-05-07T11:55:56;102762.00;;;18.51;16.13
75855;BME280;64502;59.976;30.316;2023-05-07T11:58:25;102781.34;;;18.70;15.72
75855;BME280;64502;59.976;30.316;2023-05-07T12:00:53;102767.47;;;18.94;15.78
75855;BME280;64502;59.976;30.316;2023-05-07T12:03:22;102771.31;;;19.18;15.52
75855;BME280;64502;59.976;30.316;2023-05-07T12:05:48;102790.25;;;19.29;15.29
75855;BME280;64502;59.976;30.316;2023-05-07T12:08:20;102765.69;;;19.37;15.99
75855;BME280;64502;59.976;30.316;2023-05-07T12:10:47;102771.31;;;19.33;15.38
75855;BME280;64502;59.976;30.316;2023-05-07T12:13:23;102772.44;;;19.28;15.34
75855;BME280;64502;59.976;30.316;2023-05-07T12:15:53;102765.47;;;19.55;15.84
75855;BME280;64502;59.976;30.316;2023-05-07T12:18:19;102776.56;;;19.63;15.43
75855;BME280;64502;59.976;30.316;2023-05-07T12:20:46;102770.47;;;19.32;15.45
75855;BME280;64502;59.976;30.316;2023-05-07T12:23:12;102760.50;;;19.20;15.39
75855;BME280;64502;59.976;30.316;2023-05-07T12:25:38;102761.94;;;19.11;15.33
75855;BME280;64502;59.976;30.316;2023-05-07T12:28:05;102762.91;;;19.10;15.63
75855;BME280;64502;59.976;30.316;2023-05-07T12:30:36;102770.66;;;19.29;15.79
75855;BME280;64502;59.976;30.316;2023-05-07T12:33:02;102771.22;;;19.34;15.72
75855;BME280;64502;59.976;30.316;2023-05-07T12:35:31;102771.28;;;19.90;15.84
75855;BME280;64502;59.976;30.316;2023-05-07T12:37:58;102754.84;;;19.82;14.77
75855;BME280;64502;59.976;30.316;2023-05-07T12:40:35;102755.81;;;19.81;15.12
75855;BME280;64502;59.976;30.316;2023-05-07T12:43:00;102760.91;;;19.98;15.20
75855;BME280;64502;59.976;30.316;2023-05-07T12:45:26;102757.50;;;20.36;14.97
75855;BME280;64502;59.976;30.316;2023-05-07T12:47:51;102752.69;;;20.41;15.04
75855;BME280;64502;59.976;30.316;2023-05-07T12:50:17;102759.78;;;20.15;14.73
75855;BME280;64502;59.976;30.316;2023-05-07T12:52:44;102760.63;;;20.30;15.00
75855;BME280;64502;59.976;30.316;2023-05-07T12:55:13;102765.22;;;20.28;14.75